createdAt,value
2019-04-16T00:00:11.892Z,8.90
2019-04-16T00:05:27.727Z,8.80
2019-04-16T00:10:40.393Z,14.50
2019-04-16T00:15:46.505Z,8.40
2019-04-16T00:21:09.507Z,8.10
2019-04-16T00:26:13.749Z,7.57
2019-04-16T00:31:19.944Z,7.70
2019-04-16T00:36:25.464Z,8.43
2019-04-16T00:41:31.020Z,7.67
2019-04-16T00:46:37.053Z,8.30
2019-04-16T00:51:44.082Z,9.30
2019-04-16T00:56:50.302Z,9.17
2019-04-16T01:01:56.973Z,9.30
2019-04-16T01:07:02.566Z,8.63
2019-04-16T01:12:08.202Z,9.40
2019-04-16T01:17:14.085Z,8.90
2019-04-16T01:22:20.061Z,8.87
2019-04-16T01:27:35.237Z,8.80
2019-04-16T01:32:58.108Z,9.63
2019-04-16T01:38:21.684Z,9.00
2019-04-16T01:43:27.197Z,9.00
2019-04-16T01:48:32.710Z,8.90
2019-04-16T01:53:38.687Z,9.20
2019-04-16T01:58:44.174Z,9.13
2019-04-16T02:03:50.226Z,8.50
2019-04-16T02:08:55.913Z,10.03
2019-04-16T02:14:02.992Z,8.30
2019-04-16T02:19:08.830Z,10.10
2019-04-16T02:24:18.523Z,9.50
2019-04-16T02:29:22.641Z,7.90
2019-04-16T02:34:32.286Z,8.60
2019-04-16T02:39:49.961Z,8.90
2019-04-16T02:44:49.889Z,9.37
2019-04-16T02:49:56.807Z,8.70
2019-04-16T02:55:24.855Z,9.40
2019-04-16T03:00:52.586Z,9.57
2019-04-16T03:06:00.651Z,10.10
2019-04-16T03:11:13.736Z,9.40
2019-04-16T03:16:41.453Z,10.23
2019-04-16T03:21:46.990Z,8.47
2019-04-16T03:26:52.525Z,9.63
2019-04-16T03:31:59.645Z,9.80
2019-04-16T03:37:05.883Z,10.20
2019-04-16T03:42:11.640Z,10.00
2019-04-16T03:47:19.152Z,9.77
2019-04-16T03:52:24.958Z,10.70
2019-04-16T03:57:33.275Z,9.50
2019-04-16T04:02:38.645Z,11.73
2019-04-16T04:07:45.078Z,10.20
2019-04-16T04:12:51.056Z,12.30
2019-04-16T04:17:56.931Z,11.10
2019-04-16T04:23:02.738Z,9.00
2019-04-16T04:28:08.577Z,13.00
2019-04-16T04:33:33.489Z,12.13
2019-04-16T04:38:42.363Z,11.40
2019-04-16T04:43:48.204Z,12.17
2019-04-16T04:48:55.693Z,10.93
2019-04-16T04:54:01.187Z,12.50
2019-04-16T04:59:07.440Z,9.93
2019-04-16T05:04:23.448Z,10.90
2019-04-16T05:09:29.553Z,10.80
2019-04-16T05:14:37.899Z,11.37
2019-04-16T05:19:44.552Z,11.37
2019-04-16T05:24:50.615Z,11.30
2019-04-16T05:29:56.615Z,11.93
2019-04-16T05:35:02.227Z,11.53
2019-04-16T05:40:08.451Z,12.13
2019-04-16T05:45:15.865Z,13.70
2019-04-16T05:50:21.908Z,11.23
2019-04-16T05:55:36.499Z,12.13
2019-04-16T06:01:16.111Z,11.67
2019-04-16T06:06:23.208Z,11.20
2019-04-16T06:11:35.513Z,11.60
2019-04-16T06:16:58.434Z,15.50
2019-04-16T06:22:28.167Z,12.33
2019-04-16T06:27:39.216Z,14.07
2019-04-16T06:32:50.652Z,16.27
2019-04-16T06:38:09.283Z,14.40
2019-04-16T06:43:27.363Z,15.97
2019-04-16T06:48:37.174Z,16.63
2019-04-16T06:54:02.638Z,14.67
2019-04-16T06:59:36.329Z,14.40
2019-04-16T07:05:03.640Z,12.20
2019-04-16T07:10:16.987Z,9.00
2019-04-16T07:15:27.836Z,9.67
2019-04-16T07:20:31.294Z,8.20
2019-04-16T07:25:41.711Z,8.43
2019-04-16T07:31:02.157Z,9.70
2019-04-16T07:36:28.242Z,8.97
2019-04-16T07:42:11.768Z,8.20
2019-04-16T07:47:25.861Z,8.93
2019-04-16T07:53:02.499Z,9.20
2019-04-16T07:58:08.987Z,8.50
2019-04-16T08:03:15.099Z,8.90
2019-04-16T08:08:24.601Z,8.57
2019-04-16T08:13:33.604Z,8.90
2019-04-16T08:18:49.360Z,10.03
2019-04-16T08:24:02.059Z,8.87
2019-04-16T08:29:07.600Z,9.53
2019-04-16T08:34:13.887Z,9.93
2019-04-16T08:39:20.040Z,10.20
2019-04-16T08:44:25.569Z,9.97
2019-04-16T08:49:32.179Z,9.20
2019-04-16T08:54:37.709Z,8.47
2019-04-16T08:59:43.345Z,8.63
2019-04-16T09:04:48.918Z,8.87
2019-04-16T09:09:57.956Z,9.20
2019-04-16T09:15:02.941Z,9.17
2019-04-16T09:20:12.885Z,7.87
2019-04-16T09:26:11.224Z,8.70
2019-04-16T09:31:28.497Z,8.80
2019-04-16T09:36:53.043Z,8.80
2019-04-16T09:41:59.826Z,9.30
2019-04-16T09:47:05.616Z,9.20
2019-04-16T09:52:15.176Z,8.97
2019-04-16T09:57:20.928Z,7.80
2019-04-16T10:02:31.445Z,9.20
2019-04-16T10:14:11.929Z,8.67
2019-04-16T10:19:17.520Z,8.73
2019-04-16T10:24:44.591Z,9.10
2019-04-16T10:29:50.041Z,9.20
2019-04-16T10:34:55.570Z,7.70
2019-04-16T10:40:26.817Z,9.53
2019-04-16T10:45:45.610Z,8.60
2019-04-16T10:50:58.936Z,8.70
2019-04-16T10:56:26.858Z,8.80
2019-04-16T11:01:50.048Z,9.07
2019-04-16T11:06:55.701Z,8.77
2019-04-16T11:12:05.122Z,9.03
2019-04-16T11:17:08.852Z,8.87
2019-04-16T11:22:16.118Z,8.43
2019-04-16T11:27:22.557Z,7.97
2019-04-16T11:32:30.076Z,8.43
2019-04-16T11:37:36.376Z,9.43
2019-04-16T11:42:42.625Z,9.50
2019-04-16T11:47:48.545Z,9.27
2019-04-16T11:52:58.206Z,9.97
2019-04-16T11:58:05.762Z,9.33
2019-04-16T12:03:25.080Z,9.07
2019-04-16T12:08:39.768Z,9.40
2019-04-16T12:13:50.875Z,10.70
2019-04-16T12:19:14.764Z,8.97
2019-04-16T12:24:51.141Z,9.27
2019-04-16T12:30:21.813Z,8.90
2019-04-16T12:35:49.091Z,8.97
2019-04-16T12:41:21.152Z,8.70
2019-04-16T12:46:57.719Z,8.60
2019-04-16T12:52:28.211Z,8.90
2019-04-16T12:58:05.043Z,8.30
2019-04-16T13:03:28.264Z,8.07
2019-04-16T13:08:42.929Z,7.97
2019-04-16T13:14:03.084Z,7.77
2019-04-16T13:19:27.546Z,7.37
2019-04-16T13:24:57.985Z,8.70
2019-04-16T13:30:07.453Z,7.43
2019-04-16T13:35:13.046Z,7.07
2019-04-16T13:40:19.483Z,7.20
2019-04-16T13:45:30.077Z,7.83
2019-04-16T13:50:47.662Z,8.03
2019-04-16T13:56:10.920Z,7.90
2019-04-16T14:01:19.895Z,7.03
2019-04-16T14:06:25.918Z,7.30
2019-04-16T14:11:31.416Z,7.50
2019-04-16T14:16:37.384Z,8.20
2019-04-16T14:21:44.944Z,7.87
2019-04-16T14:26:54.359Z,7.47
2019-04-16T14:32:00.009Z,8.77
2019-04-16T14:37:06.348Z,9.43
2019-04-16T14:42:12.688Z,10.17
2019-04-16T14:47:19.825Z,9.30
2019-04-16T14:52:26.601Z,8.13
2019-04-16T14:57:33.541Z,8.43
2019-04-16T15:02:44.511Z,9.40
2019-04-16T15:08:00.700Z,8.60
2019-04-16T15:13:19.020Z,8.30
2019-04-16T15:18:36.980Z,8.43
2019-04-16T15:24:01.987Z,8.63
2019-04-16T15:29:14.804Z,9.00
2019-04-16T15:34:23.317Z,8.17
2019-04-16T15:39:35.403Z,8.77
2019-04-16T15:44:47.065Z,8.63
2019-04-16T15:50:06.628Z,8.40
2019-04-16T15:55:49.434Z,10.37
2019-04-16T16:01:13.084Z,10.70
2019-04-16T16:06:24.811Z,10.27
2019-04-16T16:11:39.118Z,10.20
2019-04-16T16:16:44.580Z,10.30
2019-04-16T16:21:50.109Z,10.27
2019-04-16T16:26:55.665Z,10.30
2019-04-16T16:32:01.620Z,9.00
2019-04-16T16:37:07.523Z,10.20
2019-04-16T16:42:13.186Z,9.90
2019-04-16T16:47:23.586Z,9.90
2019-04-16T16:52:45.671Z,10.03
2019-04-16T16:58:09.031Z,10.07
2019-04-16T17:03:36.591Z,9.57
2019-04-16T17:08:43.319Z,9.90
2019-04-16T17:13:52.471Z,9.70
2019-04-16T17:19:00.745Z,9.30
2019-04-16T17:24:10.690Z,9.90
2019-04-16T17:29:19.425Z,9.70
2019-04-16T17:34:25.401Z,9.10
2019-04-16T17:39:54.920Z,13.00
2019-04-16T17:45:18.489Z,9.67
2019-04-16T17:50:51.304Z,11.70
2019-04-16T17:56:15.785Z,12.80
2019-04-16T18:01:40.346Z,10.67
2019-04-16T18:07:09.960Z,9.30
2019-04-16T18:12:35.697Z,8.43
2019-04-16T18:18:01.631Z,8.50
2019-04-16T18:23:17.482Z,9.57
2019-04-16T18:28:32.628Z,9.40
2019-04-16T18:34:01.753Z,9.53
2019-04-16T18:39:39.694Z,9.60
2019-04-16T18:45:14.341Z,10.40
2019-04-16T18:50:26.071Z,11.70
2019-04-16T18:55:34.215Z,10.90
2019-04-16T19:00:47.574Z,9.93
2019-04-16T19:05:54.690Z,11.13
2019-04-16T19:11:01.670Z,10.13
2019-04-16T19:16:09.532Z,9.67
2019-04-16T19:21:15.632Z,9.67
2019-04-16T19:26:24.043Z,10.00
2019-04-16T19:31:37.283Z,9.00
2019-04-16T19:36:47.088Z,11.20
2019-04-16T19:41:58.211Z,10.00
2019-04-16T19:47:04.434Z,9.10
2019-04-16T19:52:14.271Z,8.50
2019-04-16T19:57:19.656Z,9.43
2019-04-16T20:02:27.208Z,8.13
2019-04-16T20:07:36.654Z,10.20
2019-04-16T20:12:51.389Z,9.43
2019-04-16T20:18:01.872Z,9.07
2019-04-16T20:23:09.835Z,10.03
2019-04-16T20:28:16.367Z,7.77
2019-04-16T20:33:23.062Z,8.93
2019-04-16T20:38:33.024Z,7.50
2019-04-16T20:43:41.473Z,9.37
2019-04-16T20:49:07.711Z,8.43
2019-04-16T20:54:04.449Z,8.83
2019-04-16T20:59:10.094Z,9.93
2019-04-16T21:04:15.677Z,7.37
2019-04-16T21:09:21.217Z,7.50
2019-04-16T21:14:29.588Z,8.80
2019-04-16T21:19:48.345Z,8.50
2019-04-16T21:25:13.840Z,8.90
2019-04-16T21:30:21.226Z,8.53
2019-04-16T21:35:51.932Z,8.37
2019-04-16T21:40:57.826Z,8.60
2019-04-16T21:46:12.556Z,8.07
2019-04-16T21:51:19.489Z,7.93
2019-04-16T21:56:28.041Z,9.30
2019-04-16T22:01:45.600Z,8.80
2019-04-16T22:06:54.127Z,9.10
2019-04-16T22:11:59.849Z,8.10
2019-04-16T22:17:07.609Z,8.73
2019-04-16T22:22:15.772Z,8.47
2019-04-16T22:27:24.898Z,9.17
2019-04-16T22:32:31.989Z,10.10
2019-04-16T22:37:37.473Z,8.83
2019-04-16T22:43:06.266Z,10.20
2019-04-16T22:48:08.863Z,9.63
2019-04-16T22:53:18.020Z,7.97
2019-04-16T22:58:32.677Z,8.50
2019-04-16T23:03:40.005Z,9.60
2019-04-16T23:08:45.502Z,9.60
2019-04-16T23:13:50.943Z,9.10
2019-04-16T23:19:04.654Z,8.33
2019-04-16T23:24:13.610Z,8.70
2019-04-16T23:29:23.402Z,9.27
2019-04-16T23:34:34.868Z,8.37
2019-04-16T23:39:39.701Z,10.13
2019-04-16T23:45:05.659Z,9.73
2019-04-16T23:50:44.867Z,10.47
2019-04-16T23:55:52.374Z,8.83
